x

Buoy I01 - Eastern Maine Shelf (44034) Wave Buoy

12:04pm - Thu 29th Jan 2015 All times are EST. -5 hours from GMT.

  • Sig Wave height 2.3ft
  • Peak Period 5s
  • Wind
    11mph, 13mph gusts
  • Sea Temp 43°f
  • Air Temp 23°f
  • Sea Pressure 1023.6mb
  • Buoy I01 - Eastern Maine Shelf
  • Buoy I01 - Eastern Maine Shelf

More Historic Weather Station data

Upgrade to MSW Pro to gain access to the past 30 days of data for over 8000 Wavebouys and Weather Stations around the globe.

Join Pro

Comparision Forecast

View Surf forecast
   
Thu 01/29 12:04pm 2.5ft 5s 11 13 mph 1023.6mb 43f 23f
9:04am  -   -  31 49 mph 1024.8mb 42f 22f
8:04am 3.5ft 11s 27 34 mph 1024.3mb 42f 21f
7:04am 3.5ft 11s 25 31 mph 1024.2mb 42f 20f
6:04am 3.5ft 11s 20 27 mph 1022.8mb 42f 20f
5:04am 3.5ft 11s 20 31 mph 1022.3mb 42f 20f
4:04am 3.5ft 11s 13 22 mph 1022.7mb 42f 20f
2:04am 2ft 3s 18 29 mph 1022.1mb 42f 20f
1:04am  -   -  18 27 mph 1021.1mb - 21f
12:04am 3ft 4s  -  mph - 42f -
Wed 01/28 7:04pm  -   -  16 29 mph 1016.2mb - 21f
2:04pm 4.5ft 5s  -  mph - 42f -
12:04pm 5.5ft 5s  -  mph - 42f -
10:04am 7.5ft 5s  -  mph - 43f -
7:04am  -   -  34 43 mph - - 22f
6:04am  -   -  34 40 mph - - 22f
5:04am  -   -  34 40 mph - - 22f
4:04am  -   -  34 43 mph - - 23f
3:04am  -   -  36 45 mph - - 22f
Tue 01/27 8:04pm 22.5ft 11s 40 49 mph - 42f 24f
5:04am 16.5ft 8s 45 54 mph 1006.8mb 44f 20f
4:04am  -   -  43 51 mph 1006.6mb - 23f
3:04am 13ft 8s 38 47 mph 1007.1mb 43f 22f
2:04am  -   -  38 45 mph 1014.1mb - 24f
1:04am 9.5ft 6s  -  mph - 43f -
Mon 01/26 11:04pm 8ft 6s  -  mph - 43f -
9:04pm 5ft 5s 29 43 mph 1020.5mb 43f 23f
7:04pm 3ft 4s 22 29 mph 1022.3mb 43f 21f
6:04pm 4.5ft 11s 20 25 mph 1021.8mb 43f 22f
4:04pm 4.5ft 11s 16 22 mph 1021.2mb 44f 20f
3:04pm 5ft 11s 13 18 mph 1021.4mb 44f 18f
2:04pm 4ft 11s 16 22 mph 1020.2mb 43f 17f
1:04pm 1.6ft 4s 13 18 mph 1020.7mb 43f 17f
12:04pm 3.5ft 11s 11 16 mph 1022mb 43f 16f
11:04am  -   -  9 16 mph 1022.8mb - 15f
10:04am 4.5ft 11s 16 20 mph 1022.3mb 43f 14f
9:04am 2.5ft 4s 16 20 mph 1022mb 43f 15f
8:04am 3ft 4s 16 22 mph 1021.3mb 43f 13f
7:04am 3.5ft 4s 20 25 mph 1020.1mb 43f 13f
6:04am 3.5ft 4s 22 27 mph 1019mb 43f 13f
5:04am 3.5ft 4s 25 29 mph 1017.6mb 43f 15f
4:04am 4ft 4s  -  mph - 43f -
3:04am 4.5ft 4s  -  mph - 43f -
2:04am 5ft 5s  -  mph - 43f -
Sun 01/25 11:04pm  -   -  29 34 mph 1013.4mb - 17f
10:04pm 6ft 6s 29 40 mph 1011.7mb 42f 19f
9:04pm 9ft 11s 31 40 mph 1010.3mb 43f 19f